Time;durP1;ratioP1;P1;durP2;ratioP2;P2;SDS_P1;SDS_P2;PMS_P1;PMS_P2;Temp;Humidity;BMP_temperature;BMP_pressure;BME280_temperature;BME280_humidity;BME280_pressure;Samples;Min_cycle;Max_cycle;Signal;HPM_P1;HPM_P2
2022/05/06 00:03:04;;;;;;;38.08;22.73;;;12.70;99.90;;;;;;5049674;28;20052;-72
2022/05/06 00:06:08;;;;;;;40.30;23.67;;;12.70;99.90;;;;;;5049841;28;20044;-72
2022/05/06 00:09:12;;;;;;;37.10;23.13;;;12.60;99.90;;;;;;5049906;28;20510;-72
2022/05/06 00:12:19;;;;;;;38.60;21.08;;;12.60;99.90;;;;;;5041070;28;20048;-72
2022/05/06 00:15:22;;;;;;;747.05;50.42;;;12.50;99.90;;;;;;5053231;28;20044;-72
2022/05/06 00:18:26;;;;;;;280.10;31.98;;;12.40;99.90;;;;;;5053559;28;20044;-72
2022/05/06 00:21:30;;;;;;;347.15;31.77;;;12.40;99.90;;;;;;5053388;28;20047;-72
2022/05/06 00:24:35;;;;;;;257.77;32.45;;;12.40;99.90;;;;;;5053519;28;20072;-72
2022/05/06 00:27:42;;;;;;;45.72;24.48;;;12.20;99.90;;;;;;5053199;28;20047;-72
2022/05/06 00:30:46;;;;;;;45.72;24.98;;;12.30;99.90;;;;;;5053337;28;20055;-72
2022/05/06 00:33:50;;;;;;;60.97;25.00;;;12.40;99.90;;;;;;5053402;28;20044;-72
2022/05/06 00:36:55;;;;;;;93.93;25.95;;;12.50;99.90;;;;;;5052920;28;20043;-71
2022/05/06 00:39:59;;;;;;;69.43;25.75;;;12.60;99.90;;;;;;5053556;28;20044;-71
2022/05/06 00:43:03;;;;;;;71.32;24.27;;;12.60;99.90;;;;;;5053072;28;20384;-72
2022/05/06 00:46:15;;;;;;;36.08;21.30;;;12.70;99.90;;;;;;5052755;28;20068;-72
2022/05/06 00:49:20;;;;;;;50.38;22.35;;;12.70;99.90;;;;;;5053292;28;20048;-72
2022/05/06 00:52:24;;;;;;;72.40;23.27;;;12.70;99.90;;;;;;5040648;28;20052;-72
2022/05/06 00:55:29;;;;;;;36.83;22.00;;;12.70;99.90;;;;;;5052867;28;20419;-72
2022/05/06 00:58:33;;;;;;;33.67;20.67;;;12.70;99.90;;;;;;5053125;28;20052;-72
2022/05/06 01:01:37;;;;;;;39.63;22.38;;;12.70;99.90;;;;;;5040019;28;20048;-72
2022/05/06 01:04:41;;;;;;;34.90;20.67;;;12.70;99.90;;;;;;5040338;28;20048;-72
2022/05/06 01:07:47;;;;;;;36.63;20.98;;;12.70;99.90;;;;;;5052357;28;20067;-72
2022/05/06 01:10:51;;;;;;;36.35;21.17;;;12.60;99.90;;;;;;5040331;28;20044;-72
2022/05/06 01:13:56;;;;;;;34.30;20.42;;;12.60;99.90;;;;;;5040220;28;20048;-72
2022/05/06 01:17:05;;;;;;;30.33;19.45;;;12.60;99.90;;;;;;5039911;28;20052;-72
2022/05/06 01:20:11;;;;;;;34.75;20.58;;;12.60;99.90;;;;;;5039923;28;20167;-72
2022/05/06 01:23:16;;;;;;;26.83;17.67;;;12.60;99.90;;;;;;5040126;28;20055;-72
2022/05/06 01:26:20;;;;;;;28.17;17.33;;;12.70;99.90;;;;;;5051871;28;20044;-72
2022/05/06 01:29:24;;;;;;;31.98;18.70;;;12.70;99.90;;;;;;5051856;28;20048;-72
2022/05/06 01:32:30;;;;;;;29.05;18.83;;;12.70;99.90;;;;;;5052370;28;20068;-72
2022/05/06 01:35:50;;;;;;;33.53;19.35;;;12.70;99.90;;;;;;5052237;28;20068;-72
2022/05/06 01:39:00;;;;;;;26.92;17.63;;;12.60;99.90;;;;;;5052179;28;20043;-72
2022/05/06 01:42:09;;;;;;;31.67;19.63;;;12.60;99.90;;;;;;5039746;28;20040;-72
2022/05/06 01:45:21;;;;;;;36.30;19.38;;;12.60;99.90;;;;;;5039449;28;20403;-72
2022/05/06 01:48:28;;;;;;;27.67;18.05;;;12.60;99.90;;;;;;5039299;28;20187;-72
2022/05/06 01:51:35;;;;;;;27.05;16.48;;;12.60;99.90;;;;;;5039617;28;20044;-72
2022/05/06 01:54:43;;;;;;;42.88;21.00;;;12.60;99.90;;;;;;5039584;28;20052;-72
2022/05/06 01:57:48;;;;;;;32.08;18.60;;;12.60;99.90;;;;;;5039083;28;20075;-72
2022/05/06 02:00:52;;;;;;;34.00;19.17;;;12.60;99.90;;;;;;5039341;28;20055;-71
2022/05/06 02:07:28;;;;;;;;;;;12.60;99.90;;;;;;5039511;28;20040;-71
2022/05/06 02:10:33;;;;;;;31.00;18.17;;;12.70;99.90;;;;;;5050593;28;19912;-71
2022/05/06 02:13:42;;;;;;;32.08;18.60;;;12.70;99.90;;;;;;5050712;28;20044;-71
2022/05/06 02:17:07;;;;;;;29.02;17.67;;;12.70;99.90;;;;;;5051142;28;20032;-71
2022/05/06 02:20:22;;;;;;;30.38;17.60;;;12.70;99.90;;;;;;5038925;28;20048;-71
2022/05/06 02:23:47;;;;;;;27.70;17.00;;;12.70;99.90;;;;;;5051517;28;20498;-71
2022/05/06 02:27:04;;;;;;;27.20;15.23;;;12.70;99.90;;;;;;5051195;28;20227;-71
2022/05/06 02:33:36;;;;;;;27.83;16.45;;;12.70;99.90;;;;;;5038318;28;20060;-72
2022/05/06 02:36:47;;;;;;;25.77;16.05;;;12.70;99.90;;;;;;5038139;28;20036;-72
2022/05/06 02:39:57;;;;;;;51.28;19.70;;;12.60;99.90;;;;;;5050921;28;20060;-72
2022/05/06 02:43:03;;;;;;;35.88;17.30;;;12.40;99.90;;;;;;5050903;28;20411;-71
2022/05/06 02:46:09;;;;;;;31.60;18.00;;;12.30;99.90;;;;;;5027126;28;20047;-72
2022/05/06 02:49:13;;;;;;;32.75;16.85;;;12.30;99.90;;;;;;5051018;28;20063;-72
2022/05/06 02:52:18;;;;;;;31.30;17.52;;;12.40;99.90;;;;;;5038774;28;20072;-71
2022/05/06 02:55:23;;;;;;;28.88;15.82;;;12.40;99.90;;;;;;5049950;28;20348;-72
2022/05/06 02:58:30;;;;;;;27.92;17.33;;;12.50;99.90;;;;;;5038583;28;20052;-72
2022/05/06 03:01:34;;;;;;;33.38;18.80;;;12.50;99.90;;;;;;5038072;28;20052;-72
2022/05/06 03:04:44;;;;;;;28.85;18.13;;;12.50;99.90;;;;;;5050342;28;20412;-72
2022/05/06 03:07:53;;;;;;;24.67;15.38;;;12.50;99.90;;;;;;5050647;28;20624;-72
2022/05/06 03:11:00;;;;;;;27.58;16.67;;;12.50;99.90;;;;;;5049274;28;20404;-72
2022/05/06 03:14:04;;;;;;;23.90;14.70;;;12.60;99.90;;;;;;5037859;28;20048;-72
2022/05/06 03:17:17;;;;;;;25.13;15.13;;;12.60;99.90;;;;;;5037949;28;20040;-72
2022/05/06 03:20:21;;;;;;;23.77;13.90;;;12.60;99.90;;;;;;5050413;28;20391;-72
2022/05/06 03:23:24;;;;;;;22.85;14.63;;;12.60;99.90;;;;;;5050231;28;20039;-72
2022/05/06 03:26:28;;;;;;;20.90;12.98;;;12.60;99.90;;;;;;5050352;28;20403;-72
2022/05/06 03:29:33;;;;;;;27.75;12.45;;;12.70;99.90;;;;;;5037909;28;20048;-72
2022/05/06 03:32:38;;;;;;;18.10;11.38;;;12.70;99.90;;;;;;5038298;28;20537;-71
2022/05/06 03:35:43;;;;;;;17.33;11.70;;;12.70;99.90;;;;;;5049475;28;20048;-72
2022/05/06 03:38:47;;;;;;;21.30;11.40;;;12.70;99.90;;;;;;5038164;28;20047;-72
2022/05/06 03:41:51;;;;;;;25.00;12.93;;;12.70;99.90;;;;;;5049540;28;20043;-71
2022/05/06 03:44:56;;;;;;;14.50;10.38;;;12.70;99.90;;;;;;5039263;28;20411;-71
2022/05/06 03:48:00;;;;;;;21.67;11.88;;;12.70;99.90;;;;;;5041602;28;20048;-71
2022/05/06 03:51:22;;;;;;;23.48;12.75;;;12.50;99.90;;;;;;5053533;28;20502;-72
2022/05/06 03:54:30;;;;;;;29.20;14.00;;;12.40;99.90;;;;;;5041584;28;20052;-71
2022/05/06 03:57:35;;;;;;;28.50;16.67;;;12.30;99.90;;;;;;5041627;28;20048;-71
2022/05/06 04:00:40;;;;;;;24.63;13.90;;;12.00;99.90;;;;;;5041587;28;20044;-71
2022/05/06 04:03:47;;;;;;;21.42;14.15;;;12.00;99.90;;;;;;5054191;28;20044;-71
2022/05/06 04:06:51;;;;;;;18.85;11.90;;;12.00;99.90;;;;;;5053148;28;20499;-71
2022/05/06 04:09:56;;;;;;;23.23;12.43;;;12.10;99.90;;;;;;5053196;28;20052;-71
2022/05/06 04:13:02;;;;;;;17.27;11.35;;;12.10;99.90;;;;;;5041503;28;20048;-71
2022/05/06 04:16:07;;;;;;;28.60;15.68;;;12.10;99.90;;;;;;5052479;28;20064;-72
2022/05/06 04:19:12;;;;;;;59.70;21.50;;;11.90;99.90;;;;;;5053319;28;20052;-71
2022/05/06 04:25:46;;;;;;;39.53;20.30;;;11.70;99.90;;;;;;5028579;28;20044;-71
2022/05/06 04:28:53;;;;;;;33.95;17.65;;;11.80;99.90;;;;;;5041042;28;20071;-71
2022/05/06 04:31:58;;;;;;;32.10;18.20;;;11.90;99.90;;;;;;5040447;28;20529;-71
2022/05/06 04:35:06;;;;;;;30.77;18.52;;;11.90;99.90;;;;;;5040537;28;20040;-71
2022/05/06 04:38:11;;;;;;;34.80;18.10;;;12.00;99.90;;;;;;5040583;28;20040;-71
2022/05/06 04:41:16;;;;;;;34.50;19.08;;;12.00;99.90;;;;;;5052352;28;20040;-72
2022/05/06 04:44:20;;;;;;;39.35;20.10;;;12.10;99.90;;;;;;5050370;28;20059;-72
2022/05/06 04:47:25;;;;;;;58.15;18.92;;;12.00;99.90;;;;;;5040059;28;20052;-71
2022/05/06 04:50:29;;;;;;;35.13;20.25;;;11.90;99.90;;;;;;5040087;28;20040;-71
2022/05/06 04:53:33;;;;;;;24.52;14.40;;;12.00;99.90;;;;;;5052576;28;20048;-71
2022/05/06 04:56:38;;;;;;;31.35;18.50;;;12.00;99.90;;;;;;5039217;28;20044;-71
2022/05/06 04:59:50;;;;;;;28.33;15.88;;;12.10;99.90;;;;;;5039997;28;20044;-72
2022/05/06 05:02:58;;;;;;;28.00;16.00;;;12.10;99.90;;;;;;5039963;28;20045;-72
2022/05/06 05:06:03;;;;;;;31.85;13.25;;;12.20;99.90;;;;;;5039682;28;20060;-71
2022/05/06 05:09:08;;;;;;;26.30;14.48;;;12.30;99.90;;;;;;5051378;28;20048;-71
2022/05/06 05:12:14;;;;;;;22.08;13.43;;;12.40;99.90;;;;;;5039663;28;20163;-71
2022/05/06 05:15:24;;;;;;;24.33;13.85;;;12.50;99.90;;;;;;5039588;28;20040;-72
2022/05/06 05:18:28;;;;;;;18.83;13.35;;;12.50;99.90;;;;;;5040112;28;20048;-71
2022/05/06 05:21:33;;;;;;;20.30;12.52;;;12.60;99.90;;;;;;5039733;28;20047;-72
2022/05/06 05:24:39;;;;;;;20.25;11.60;;;12.60;99.90;;;;;;5039561;28;20064;-71
2022/05/06 05:27:44;;;;;;;21.58;10.48;;;12.70;99.90;;;;;;5039432;28;20605;-71
2022/05/06 05:30:57;;;;;;;14.60;9.50;;;12.70;99.90;;;;;;5051105;28;20044;-72
2022/05/06 05:34:03;;;;;;;15.77;9.75;;;12.70;99.90;;;;;;5050974;28;20531;-72
2022/05/06 05:37:08;;;;;;;18.23;10.15;;;12.80;99.90;;;;;;5050050;28;20043;-71
2022/05/06 05:40:13;;;;;;;19.45;9.75;;;12.90;99.90;;;;;;5050945;28;20048;-71
2022/05/06 05:50:12;;;;;;;14.60;7.90;;;12.80;99.90;;;;;;5050495;28;20036;-71
2022/05/06 05:53:16;;;;;;;15.23;7.68;;;12.90;99.90;;;;;;5038827;28;20411;-71
2022/05/06 05:56:21;;;;;;;20.55;10.88;;;12.90;99.90;;;;;;5037638;28;20052;-71
2022/05/06 05:59:26;;;;;;;17.27;9.27;;;12.80;99.90;;;;;;5050045;28;20055;-71
2022/05/06 06:02:32;;;;;;;10.10;6.90;;;12.80;99.90;;;;;;5038857;28;20163;-71
2022/05/06 06:05:37;;;;;;;12.75;7.13;;;12.80;99.90;;;;;;5049801;28;20048;-71
2022/05/06 06:08:43;;;;;;;15.75;8.50;;;12.80;99.90;;;;;;5031250;28;20032;-71
2022/05/06 06:11:48;;;;;;;14.07;7.53;;;12.80;99.90;;;;;;5038688;28;20044;-71
2022/05/06 06:14:55;;;;;;;14.05;7.20;;;12.90;99.90;;;;;;5049181;28;20499;-71
2022/05/06 06:18:00;;;;;;;16.35;6.80;;;12.90;99.90;;;;;;5029591;28;20052;-71
2022/05/06 06:21:06;;;;;;;11.63;6.28;;;12.90;99.90;;;;;;5027247;28;20395;-73
2022/05/06 06:24:12;;;;;;;11.52;7.28;;;13.00;99.90;;;;;;5048126;28;20131;-72
2022/05/06 06:27:18;;;;;;;11.50;6.68;;;13.00;99.90;;;;;;5046325;28;20085;-71
2022/05/06 06:30:23;;;;;;;12.32;6.63;;;13.10;99.90;;;;;;5036650;28;20523;-71
2022/05/06 06:33:28;;;;;;;9.57;5.97;;;13.30;99.90;;;;;;5050769;28;20391;-71
2022/05/06 06:36:33;;;;;;;11.65;6.15;;;13.40;99.90;;;;;;5036755;28;20040;-71
2022/05/06 06:39:38;;;;;;;12.10;5.88;;;13.50;99.90;;;;;;5031632;28;20431;-71
2022/05/06 06:42:44;;;;;;;16.27;7.45;;;13.40;99.90;;;;;;5049234;28;20043;-71
2022/05/06 06:46:00;;;;;;;12.25;6.53;;;13.40;99.90;;;;;;5022919;28;20408;-71
2022/05/06 06:49:23;;;;;;;13.13;6.82;;;13.50;99.90;;;;;;5037319;28;20048;-71
2022/05/06 06:52:49;;;;;;;13.38;5.97;;;13.60;99.90;;;;;;5035541;28;20515;-71
2022/05/06 06:55:53;;;;;;;10.88;5.97;;;13.80;99.90;;;;;;5046453;28;20044;-71
2022/05/06 06:58:57;;;;;;;10.98;6.60;;;14.00;99.90;;;;;;5044712;28;20051;-72
2022/05/06 07:02:01;;;;;;;8.35;5.57;;;14.20;99.90;;;;;;5041223;28;20067;-71
2022/05/06 07:05:05;;;;;;;9.15;5.40;;;14.50;99.90;;;;;;5048687;28;20044;-71
2022/05/06 07:11:55;;;;;;;10.75;5.22;;;15.30;99.90;;;;;;5025116;28;20412;-71
2022/05/06 07:15:05;;;;;;;9.93;5.30;;;15.60;99.90;;;;;;5039341;28;20056;-71
2022/05/06 07:18:10;;;;;;;7.13;4.47;;;15.80;99.90;;;;;;5047807;28;20055;-71
2022/05/06 07:21:14;;;;;;;10.02;5.03;;;15.90;99.90;;;;;;5054809;28;20534;-71
2022/05/06 07:24:19;;;;;;;7.45;4.95;;;16.00;99.90;;;;;;5055385;28;20067;-71
2022/05/06 07:27:23;;;;;;;12.63;5.53;;;16.10;99.90;;;;;;5053493;28;20048;-70
2022/05/06 07:30:27;;;;;;;8.30;4.53;;;16.00;99.90;;;;;;5056335;28;20091;-71
2022/05/06 07:33:31;;;;;;;12.93;4.22;;;15.90;99.90;;;;;;5056175;28;20391;-71
2022/05/06 07:36:41;;;;;;;15.50;5.97;;;16.20;99.90;;;;;;5054876;28;20064;-70
2022/05/06 07:39:45;;;;;;;12.32;5.97;;;16.10;99.90;;;;;;5056183;28;20048;-71
2022/05/06 07:42:50;;;;;;;11.70;5.82;;;15.30;99.90;;;;;;5055528;28;20051;-71
2022/05/06 07:45:55;;;;;;;16.02;6.57;;;15.40;99.90;;;;;;5055800;28;20048;-70
2022/05/06 07:49:00;;;;;;;12.48;7.28;;;15.40;99.90;;;;;;5055289;28;20044;-70
2022/05/06 07:52:04;;;;;;;15.07;8.25;;;15.70;99.90;;;;;;5054338;28;20068;-70
2022/05/06 07:55:13;;;;;;;18.20;8.05;;;15.70;99.90;;;;;;5053012;28;20191;-70
2022/05/06 07:58:17;;;;;;;22.08;7.35;;;14.90;99.90;;;;;;5035338;28;20056;-70
2022/05/06 08:04:32;;;;;;;12.40;7.55;;;15.10;99.90;;;;;;5048034;28;20384;-70
2022/05/06 08:04:48;;;;;;;11.48;7.10;;;15.60;99.90;;;;;;5055415;28;20056;-70
2022/05/06 08:07:52;;;;;;;17.17;7.88;;;15.90;99.90;;;;;;5055081;28;20503;-70
2022/05/06 08:10:56;;;;;;;10.02;6.18;;;16.00;99.90;;;;;;5056167;28;20051;-71
2022/05/06 08:14:00;;;;;;;15.40;6.93;;;15.60;99.90;;;;;;5056012;28;20044;-71
2022/05/06 08:17:04;;;;;;;11.32;6.78;;;16.40;99.90;;;;;;5054869;28;20040;-70
2022/05/06 08:20:09;;;;;;;10.52;5.65;;;17.10;99.90;;;;;;5054827;28;20506;-71
2022/05/06 08:23:13;;;;;;;15.18;5.80;;;17.20;99.90;;;;;;5054201;28;20028;-71
2022/05/06 08:26:18;;;;;;;8.90;5.53;;;17.50;99.90;;;;;;5055051;28;20044;-71
2022/05/06 08:29:22;;;;;;;8.65;4.78;;;18.00;99.90;;;;;;5055108;28;20044;-72
2022/05/06 08:32:26;;;;;;;10.20;5.13;;;18.90;99.90;;;;;;5032385;28;20060;-72
2022/05/06 08:35:30;;;;;;;8.88;4.55;;;19.10;99.90;;;;;;5041235;28;20416;-71
2022/05/06 08:38:34;;;;;;;11.40;6.15;;;19.00;99.90;;;;;;5046906;28;20507;-71
2022/05/06 08:41:39;;;;;;;9.82;4.97;;;19.20;99.90;;;;;;5050022;28;20051;-72
2022/05/06 08:51:35;;;;;;;8.85;4.35;;;20.40;99.90;;;;;;5050747;28;20044;-71
2022/05/06 08:54:39;;;;;;;7.13;3.28;;;20.10;99.90;;;;;;5051245;28;20395;-71
2022/05/06 08:57:46;;;;;;;7.07;3.88;;;19.80;99.90;;;;;;5050020;28;20083;-71
2022/05/06 09:00:51;;;;;;;8.85;5.22;;;19.70;99.90;;;;;;5045001;28;20055;-72
2022/05/06 09:03:56;;;;;;;11.35;6.55;;;19.60;99.90;;;;;;5045596;28;20554;-72
2022/05/06 09:07:21;;;;;;;10.57;4.82;;;19.20;99.90;;;;;;5040201;28;20475;-71
2022/05/06 09:10:26;;;;;;;9.27;5.18;;;18.00;99.90;;;;;;5044927;28;20060;-71
2022/05/06 09:13:31;;;;;;;8.07;4.85;;;17.00;99.90;;;;;;5051169;28;20040;-71
2022/05/06 09:16:46;;;;;;;10.00;5.88;;;17.50;99.90;;;;;;5050168;28;20032;-71
2022/05/06 09:19:50;;;;;;;8.45;5.32;;;17.30;99.90;;;;;;5043363;28;20052;-71
2022/05/06 09:22:55;;;;;;;10.90;4.97;;;18.00;99.90;;;;;;5051890;28;20056;-71
2022/05/06 09:26:00;;;;;;;9.07;5.57;;;18.40;99.90;;;;;;5049442;28;20252;-71
2022/05/06 09:29:04;;;;;;;9.93;5.15;;;18.40;99.90;;;;;;5051001;28;20044;-71
2022/05/06 09:32:24;;;;;;;12.25;6.15;;;18.40;99.90;;;;;;5044371;28;20052;-71
2022/05/06 09:35:32;;;;;;;14.85;6.07;;;18.10;99.90;;;;;;5045665;28;20503;-71
2022/05/06 09:38:36;;;;;;;12.68;6.00;;;17.50;99.90;;;;;;5050892;28;20055;-70
2022/05/06 09:41:41;;;;;;;10.40;5.47;;;17.20;99.90;;;;;;5047091;28;20048;-71
2022/05/06 09:44:47;;;;;;;8.88;5.97;;;16.80;99.90;;;;;;5050547;28;20052;-71
2022/05/06 09:47:58;;;;;;;11.32;6.60;;;16.80;99.90;;;;;;5049805;28;20396;-71
2022/05/06 09:51:02;;;;;;;10.95;7.38;;;16.80;99.90;;;;;;5048508;28;20498;-71
2022/05/06 09:54:06;;;;;;;10.68;7.43;;;16.70;99.90;;;;;;5048299;28;20033;-71
2022/05/06 09:57:15;;;;;;;15.82;8.63;;;16.30;99.90;;;;;;5040864;28;20044;-70
2022/05/06 10:00:19;;;;;;;15.70;8.82;;;16.20;99.90;;;;;;5040284;28;20412;-69
2022/05/06 10:03:24;;;;;;;12.38;8.30;;;15.90;99.90;;;;;;5038109;28;20052;-70
2022/05/06 10:06:29;;;;;;;12.23;8.38;;;16.10;99.90;;;;;;5035385;28;20322;-70
2022/05/06 10:09:39;;;;;;;12.15;7.38;;;16.70;99.90;;;;;;5051101;28;20032;-71
2022/05/06 10:12:52;;;;;;;12.55;6.60;;;17.50;99.90;;;;;;5050176;28;20044;-70
2022/05/06 10:15:57;;;;;;;12.68;7.65;;;18.90;99.90;;;;;;5031103;28;20045;-71
2022/05/06 10:19:03;;;;;;;13.57;7.05;;;18.30;99.90;;;;;;5023163;28;20396;-71
2022/05/06 10:22:10;;;;;;;17.25;7.22;;;18.30;99.90;;;;;;5033086;28;20057;-71
2022/05/06 10:25:42;;;;;;;15.18;7.03;;;18.10;99.90;;;;;;5030768;28;20052;-71
2022/05/06 10:32:27;;;;;;;13.07;6.78;;;18.30;99.90;;;;;;5050820;28;20276;-71
2022/05/06 10:35:38;;;;;;;15.32;7.15;;;20.40;99.90;;;;;;5050930;28;20052;-71
2022/05/06 10:38:47;;;;;;;11.07;5.53;;;22.00;99.90;;;;;;5050831;28;20048;-71
2022/05/06 10:42:17;;;;;;;10.23;5.97;;;23.10;99.90;;;;;;5039188;28;20055;-72
2022/05/06 10:45:33;;;;;;;12.02;5.22;;;23.90;99.90;;;;;;5048009;28;20044;-71
2022/05/06 10:48:37;;;;;;;11.48;5.43;;;24.20;99.90;;;;;;5048320;28;20060;-72
2022/05/06 10:51:41;;;;;;;11.32;5.00;;;22.90;99.90;;;;;;5047502;28;20036;-72
2022/05/06 10:54:49;;;;;;;11.15;6.15;;;22.80;99.90;;;;;;5049562;28;20383;-70
2022/05/06 10:58:02;;;;;;;11.90;6.88;;;22.30;99.90;;;;;;5048548;28;20056;-71
2022/05/06 11:01:13;;;;;;;11.90;4.97;;;22.20;99.90;;;;;;5049810;28;20040;-71
2022/05/06 11:04:18;;;;;;;7.13;4.40;;;22.50;99.90;;;;;;5043084;28;20499;-72
2022/05/06 11:07:22;;;;;;;10.30;4.55;;;22.30;99.90;;;;;;5043366;28;20048;-72
2022/05/06 11:10:30;;;;;;;15.30;5.65;;;21.50;99.90;;;;;;5037085;28;20048;-72
2022/05/06 11:13:34;;;;;;;13.65;5.00;;;19.80;99.90;;;;;;5040746;28;20040;-72
2022/05/06 11:16:39;;;;;;;12.05;5.35;;;19.80;99.90;;;;;;5047549;28;20048;-71
2022/05/06 11:19:43;;;;;;;12.10;6.05;;;19.40;99.90;;;;;;5045991;28;20083;-71
2022/05/06 11:22:55;;;;;;;14.98;7.43;;;19.40;99.90;;;;;;5043116;28;20044;-71
2022/05/06 11:26:00;;;;;;;8.68;5.53;;;19.50;99.90;;;;;;5046224;28;20044;-72
2022/05/06 11:29:05;;;;;;;13.73;4.43;;;20.20;99.90;;;;;;5041883;28;20060;-72
2022/05/06 11:32:14;;;;;;;15.02;5.55;;;21.10;99.90;;;;;;5046333;28;20041;-71
2022/05/06 11:35:40;;;;;;;12.48;4.55;;;19.70;99.90;;;;;;5041694;28;20052;-71
2022/05/06 11:38:46;;;;;;;9.40;3.75;;;20.10;99.90;;;;;;5043646;28;20043;-73
2022/05/06 11:41:51;;;;;;;16.85;3.65;;;21.40;99.90;;;;;;5029372;28;20040;-71
2022/05/06 11:48:22;;;;;;;11.27;4.13;;;21.80;99.90;;;;;;5036747;28;20040;-71
2022/05/06 11:51:31;;;;;;;15.38;3.22;;;22.60;99.90;;;;;;5039568;28;20044;-72
2022/05/06 11:54:34;;;;;;;11.90;3.10;;;22.80;99.90;;;;;;5047862;28;20071;-72
2022/05/06 11:57:39;;;;;;;17.13;3.35;;;22.80;99.90;;;;;;5041945;28;20041;-73
2022/05/06 12:00:46;;;;;;;11.43;3.50;;;22.80;99.90;;;;;;5040599;28;20052;-72
2022/05/06 12:03:50;;;;;;;10.60;3.17;;;23.30;99.90;;;;;;5043419;28;20039;-71
2022/05/06 12:06:55;;;;;;;10.07;2.80;;;21.70;99.90;;;;;;5045592;28;20399;-72
2022/05/06 12:10:00;;;;;;;9.27;3.13;;;21.60;99.90;;;;;;5045241;28;20044;-72
2022/05/06 12:13:09;;;;;;;8.02;3.28;;;21.50;99.90;;;;;;5051080;28;20065;-72
2022/05/06 12:16:14;;;;;;;16.00;2.90;;;22.30;99.90;;;;;;5042797;28;20056;-72
2022/05/06 12:19:19;;;;;;;6.57;2.95;;;22.50;99.90;;;;;;5041702;28;20059;-72
2022/05/06 12:22:24;;;;;;;9.85;3.88;;;22.80;99.90;;;;;;5038933;28;20128;-71
2022/05/06 12:25:28;;;;;;;8.82;3.38;;;22.80;99.90;;;;;;5048195;28;20040;-71
2022/05/06 12:28:32;;;;;;;8.63;3.60;;;22.10;99.90;;;;;;5045934;28;20048;-71
2022/05/06 12:31:36;;;;;;;7.05;3.10;;;22.80;99.90;;;;;;5047890;28;20048;-71
2022/05/06 12:34:41;;;;;;;6.40;2.80;;;22.70;99.90;;;;;;5042026;28;20067;-71
2022/05/06 12:37:58;;;;;;;9.88;3.10;;;21.90;99.90;;;;;;5045482;28;20044;-71
2022/05/06 12:41:16;;;;;;;9.93;3.75;;;22.30;99.90;;;;;;5044535;28;20246;-71
2022/05/06 12:44:27;;;;;;;10.75;3.03;;;22.20;99.90;;;;;;5043852;28;20040;-72
2022/05/06 12:50:53;;;;;;;11.57;3.33;;;21.40;99.90;;;;;;5042710;28;20048;-71
2022/05/06 12:53:57;;;;;;;7.82;2.80;;;21.40;99.90;;;;;;5052705;28;20391;-71
2022/05/06 12:57:03;;;;;;;9.38;2.85;;;21.20;99.90;;;;;;5042031;28;20483;-71
2022/05/06 13:00:07;;;;;;;11.93;3.20;;;21.10;99.90;;;;;;5048514;28;20240;-71
2022/05/06 13:03:12;;;;;;;8.23;3.33;;;20.90;99.90;;;;;;5049339;28;20036;-72
2022/05/06 13:06:16;;;;;;;10.60;3.05;;;21.20;99.90;;;;;;5049942;28;20044;-71
2022/05/06 13:09:21;;;;;;;9.10;3.00;;;21.10;99.90;;;;;;5045646;28;20040;-71
2022/05/06 13:12:25;;;;;;;8.13;2.40;;;21.40;99.90;;;;;;5048373;28;20044;-72
2022/05/06 13:15:29;;;;;;;6.60;1.90;;;21.40;99.90;;;;;;5043568;28;20068;-72
2022/05/06 13:18:33;;;;;;;10.93;3.15;;;21.50;99.90;;;;;;5025375;28;20502;-71
2022/05/06 13:21:38;;;;;;;5.45;1.73;;;21.40;99.90;;;;;;5041938;28;20415;-72
2022/05/06 13:24:42;;;;;;;5.60;1.80;;;21.30;99.90;;;;;;5048030;28;20396;-72
2022/05/06 13:27:46;;;;;;;4.60;1.42;;;21.00;99.90;;;;;;5050298;28;20047;-71
2022/05/06 13:30:50;;;;;;;6.35;2.30;;;20.70;99.90;;;;;;5047000;28;20388;-71
2022/05/06 13:33:54;;;;;;;11.60;2.70;;;20.60;99.90;;;;;;5047563;28;20052;-71
2022/05/06 13:36:57;;;;;;;4.75;1.60;;;20.60;99.90;;;;;;5047693;28;20039;-72
2022/05/06 13:40:02;;;;;;;3.13;1.67;;;20.20;99.90;;;;;;5046768;28;20040;-72
2022/05/06 13:43:06;;;;;;;5.30;1.33;;;19.80;99.90;;;;;;5042435;28;20044;-72
2022/05/06 13:46:11;;;;;;;6.32;1.75;;;19.40;99.90;;;;;;5041051;28;20040;-71
2022/05/06 13:49:15;;;;;;;4.07;1.55;;;19.10;99.90;;;;;;5043307;28;20048;-72
2022/05/06 13:52:19;;;;;;;4.43;1.30;;;19.10;99.90;;;;;;5044012;28;20036;-71
2022/05/06 13:59:03;;;;;;;5.80;1.80;;;19.00;99.90;;;;;;5039503;28;20040;-71
2022/05/06 13:59:06;;;;;;;10.65;1.40;;;19.10;99.90;;;;;;5042114;28;20052;-72
2022/05/06 14:02:11;;;;;;;3.03;1.50;;;19.10;99.90;;;;;;5048806;28;20495;-71
2022/05/06 14:05:16;;;;;;;3.78;1.50;;;19.20;99.90;;;;;;5042078;28;20048;-72
2022/05/06 14:08:20;;;;;;;6.75;1.40;;;19.30;99.90;;;;;;5042036;28;20044;-71
2022/05/06 14:11:26;;;;;;;4.72;1.70;;;19.20;99.90;;;;;;5042770;28;20044;-71
2022/05/06 14:14:31;;;;;;;3.55;1.40;;;19.20;99.90;;;;;;5044860;28;20566;-71
2022/05/06 14:17:36;;;;;;;6.45;2.05;;;18.90;99.90;;;;;;5044651;28;20048;-71
2022/05/06 14:20:40;;;;;;;7.05;2.40;;;18.80;99.90;;;;;;5032264;28;20506;-72
2022/05/06 14:23:44;;;;;;;3.30;1.20;;;18.80;99.90;;;;;;5047087;28;20040;-71
2022/05/06 14:26:47;;;;;;;7.13;1.67;;;18.70;99.90;;;;;;5030407;28;20041;-72
2022/05/06 14:29:51;;;;;;;9.50;1.92;;;18.70;99.90;;;;;;5030578;28;20052;-72
2022/05/06 14:32:55;;;;;;;3.50;1.60;;;18.50;99.90;;;;;;5031240;28;20148;-73
2022/05/06 14:35:59;;;;;;;6.30;1.65;;;18.40;99.90;;;;;;5045550;28;20052;-73
2022/05/06 14:39:03;;;;;;;8.40;1.80;;;18.20;99.90;;;;;;5036690;28;20056;-73
2022/05/06 14:42:07;;;;;;;6.57;2.08;;;18.10;99.90;;;;;;5031003;28;20052;-73
2022/05/06 14:45:12;;;;;;;19.58;2.70;;;18.00;99.90;;;;;;5046270;28;20047;-73
2022/05/06 14:48:16;;;;;;;4.95;1.90;;;17.80;99.90;;;;;;5043743;28;20474;-73
2022/05/06 14:51:21;;;;;;;5.55;2.08;;;17.80;99.90;;;;;;5033535;28;20040;-73
2022/05/06 14:54:25;;;;;;;5.97;1.70;;;17.70;99.90;;;;;;5034774;28;20479;-73
2022/05/06 14:57:34;;;;;;;7.35;3.13;;;17.60;99.90;;;;;;5038600;28;20124;-72
2022/05/06 15:00:38;;;;;;;9.88;3.10;;;17.50;99.90;;;;;;5038286;28;20048;-72
2022/05/06 15:03:41;;;;;;;3.75;2.00;;;17.40;99.90;;;;;;5044650;28;20048;-75
2022/05/06 15:06:46;;;;;;;3.60;1.67;;;17.40;99.90;;;;;;5041599;28;20048;-73
2022/05/06 15:09:50;;;;;;;5.60;1.58;;;17.40;99.90;;;;;;5040999;28;20048;-72
2022/05/06 15:12:54;;;;;;;2.95;1.40;;;17.20;99.90;;;;;;5038754;28;20388;-73
2022/05/06 15:16:00;;;;;;;5.88;1.15;;;17.20;99.90;;;;;;5030266;28;20384;-72
2022/05/06 15:22:27;;;;;;;;;;;17.10;99.90;;;;;;5030899;28;20040;-73
2022/05/06 15:25:31;;;;;;;3.30;1.25;;;17.20;99.90;;;;;;5030284;28;20275;-72
2022/05/06 15:28:35;;;;;;;4.13;1.40;;;17.20;99.90;;;;;;5030648;28;20052;-73
2022/05/06 15:31:39;;;;;;;7.93;1.50;;;17.30;99.90;;;;;;5030385;28;20384;-72
2022/05/06 15:34:43;;;;;;;7.30;1.10;;;17.40;99.90;;;;;;5030512;28;20459;-72
2022/05/06 15:37:47;;;;;;;7.28;1.40;;;17.60;99.90;;;;;;5029841;28;20052;-73
2022/05/06 15:40:53;;;;;;;2.65;1.00;;;17.50;99.90;;;;;;5032007;28;20060;-73
2022/05/06 15:43:57;;;;;;;5.95;1.15;;;17.40;99.90;;;;;;5034010;28;20044;-74
2022/05/06 15:47:02;;;;;;;4.07;0.80;;;17.30;99.90;;;;;;5033632;28;20048;-72
2022/05/06 15:50:08;;;;;;;8.40;1.10;;;17.10;99.90;;;;;;5034046;28;20070;-72
2022/05/06 15:53:12;;;;;;;3.53;0.88;;;17.10;99.90;;;;;;5033938;28;20044;-72
2022/05/06 15:56:16;;;;;;;8.57;0.85;;;16.90;99.90;;;;;;5033290;28;20053;-73
2022/05/06 15:59:20;;;;;;;3.35;0.80;;;16.70;99.90;;;;;;5034154;28;20121;-72
2022/05/06 16:02:24;;;;;;;2.70;1.35;;;16.50;99.90;;;;;;5033992;28;20064;-72
2022/05/06 16:05:30;;;;;;;4.60;0.80;;;16.50;99.90;;;;;;5033974;28;20072;-73
2022/05/06 16:08:34;;;;;;;5.22;1.20;;;16.50;99.90;;;;;;5033924;28;20040;-72
2022/05/06 16:11:38;;;;;;;5.22;1.40;;;16.30;99.90;;;;;;5034024;28;20057;-72
2022/05/06 16:18:04;;;;;;;2.97;0.60;;;16.60;99.90;;;;;;5031559;28;20068;-72
2022/05/06 16:21:09;;;;;;;1.55;0.70;;;16.70;99.90;;;;;;5033754;28;20507;-72
2022/05/06 16:24:13;;;;;;;1.17;0.50;;;16.70;99.90;;;;;;5033521;28;20048;-72
2022/05/06 16:27:16;;;;;;;0.80;0.55;;;16.70;99.90;;;;;;5033246;28;20064;-72
2022/05/06 16:30:21;;;;;;;2.78;0.55;;;16.70;99.90;;;;;;5033406;28;20040;-72
2022/05/06 16:33:25;;;;;;;1.35;0.50;;;16.70;99.90;;;;;;5033592;28;20423;-72
2022/05/06 16:39:55;;;;;;;1.00;0.50;;;16.90;99.90;;;;;;5033424;28;20052;-72
2022/05/06 16:42:59;;;;;;;0.60;0.50;;;16.90;99.90;;;;;;5021124;28;20511;-72
2022/05/06 16:46:03;;;;;;;2.90;0.55;;;16.80;99.90;;;;;;5030855;28;20048;-71
2022/05/06 16:49:07;;;;;;;1.45;0.50;;;16.90;99.90;;;;;;5020633;28;20048;-71